Terminal Aerodrome Forecast
Issued by NWS

Current Version | Previous Version | Text Only | Print | Product List | Glossary On
Versions: 1 2 3 4 5 6 7 8 9 10 11 12 13
581
FTUS44 KEPZ 282323
TAFLRU
TAF
KLRU 282323Z 2900/2924 27015G25KT P6SM FEW150 FEW250
     FM290300 28011KT P6SM SKC
     FM291600 26015G20KT P6SM SKC=

USA.gov is the U.S. government's official web portal to all federal, state and local government web resources and services.